createdAt,value
2023-02-02T00:01:25.882Z,2.18
2023-02-02T00:03:58.377Z,2.19
2023-02-02T00:06:32.117Z,2.19
2023-02-02T00:09:05.761Z,2.18
2023-02-02T00:11:38.100Z,2.14
2023-02-02T00:14:10.725Z,2.10
2023-02-02T00:16:45.784Z,2.08
2023-02-02T00:19:20.173Z,2.05
2023-02-02T00:21:52.450Z,2.03
2023-02-02T00:24:25.075Z,1.99
2023-02-02T00:26:59.607Z,1.96
2023-02-02T00:29:32.846Z,1.96
2023-02-02T00:32:05.348Z,1.97
2023-02-02T00:34:37.641Z,1.99
2023-02-02T00:37:09.969Z,1.97
2023-02-02T00:39:42.205Z,1.95
2023-02-02T00:42:15.017Z,1.95
2023-02-02T00:45:16.052Z,1.92
2023-02-02T00:47:50.765Z,1.91
2023-02-02T00:50:23.670Z,1.90
2023-02-02T00:52:56.055Z,1.90
2023-02-02T00:55:28.809Z,1.91
2023-02-02T00:58:01.307Z,1.90
2023-02-02T01:00:33.625Z,1.89
2023-02-02T01:03:07.251Z,1.88
2023-02-02T01:05:40.838Z,1.85
2023-02-02T01:08:13.250Z,1.83
2023-02-02T01:10:45.503Z,1.80
2023-02-02T01:13:17.947Z,1.78
2023-02-02T01:15:50.400Z,1.75
2023-02-02T01:18:22.691Z,1.73
2023-02-02T01:21:01.662Z,1.69
2023-02-02T01:23:34.735Z,1.65
2023-02-02T01:26:09.038Z,1.63
2023-02-02T01:28:41.935Z,1.60
2023-02-02T01:31:15.567Z,1.64
2023-02-02T01:33:50.282Z,1.60
2023-02-02T01:36:24.474Z,1.55
2023-02-02T01:38:56.765Z,1.52
2023-02-02T01:41:29.604Z,1.47
2023-02-02T01:44:04.099Z,1.47
2023-02-02T01:46:37.813Z,1.47
2023-02-02T01:49:14.113Z,1.44
2023-02-02T01:51:53.353Z,1.38
2023-02-02T01:54:30.946Z,1.36
2023-02-02T01:57:07.804Z,1.33
2023-02-02T01:59:41.034Z,1.34
2023-02-02T02:02:14.206Z,1.33
2023-02-02T02:04:46.632Z,1.33
2023-02-02T02:07:19.125Z,1.32
2023-02-02T02:09:51.739Z,1.32
2023-02-02T02:12:24.075Z,1.33
2023-02-02T02:15:13.750Z,1.33
2023-02-02T02:18:01.779Z,1.32
2023-02-02T02:21:26.135Z,1.31
2023-02-02T02:24:57.410Z,1.28
2023-02-02T02:28:01.011Z,1.30
2023-02-02T02:30:59.855Z,1.29
2023-02-02T02:33:37.427Z,1.30
2023-02-02T02:36:18.909Z,1.30
2023-02-02T02:38:58.652Z,1.30
2023-02-02T02:41:34.804Z,1.32
2023-02-02T02:44:09.778Z,1.34
2023-02-02T02:46:42.312Z,1.32
2023-02-02T02:49:15.731Z,1.29
2023-02-02T02:51:50.785Z,1.24
2023-02-02T02:54:27.255Z,1.22
2023-02-02T02:57:14.801Z,1.21
2023-02-02T02:59:56.032Z,1.22
2023-02-02T03:02:43.659Z,1.21
2023-02-02T03:05:27.739Z,1.19
2023-02-02T03:08:09.933Z,1.18
2023-02-02T03:10:45.950Z,1.18
2023-02-02T03:13:17.222Z,1.17
2023-02-02T03:15:49.861Z,1.16
2023-02-02T03:18:25.447Z,1.15
2023-02-02T03:20:58.256Z,1.14
2023-02-02T03:23:30.604Z,1.16
2023-02-02T03:26:02.984Z,1.16
2023-02-02T03:28:35.761Z,1.12
2023-02-02T03:31:08.577Z,1.09
2023-02-02T03:33:41.194Z,1.06
2023-02-02T03:36:13.776Z,1.05
2023-02-02T03:38:46.125Z,1.04
2023-02-02T03:41:18.404Z,1.00
2023-02-02T03:43:50.720Z,0.98
2023-02-02T03:46:23.227Z,0.96
2023-02-02T03:48:55.627Z,0.97
2023-02-02T03:51:28.024Z,0.97
2023-02-02T03:54:00.216Z,0.97
2023-02-02T03:56:32.594Z,0.96
2023-02-02T03:59:04.988Z,0.95
2023-02-02T04:01:37.400Z,0.98
2023-02-02T04:04:09.847Z,0.98
2023-02-02T04:06:42.056Z,0.94
2023-02-02T04:09:14.473Z,0.97
2023-02-02T04:11:46.704Z,0.99
2023-02-02T04:14:19.232Z,1.00
2023-02-02T04:16:51.479Z,1.03
2023-02-02T04:19:23.748Z,1.08
2023-02-02T04:21:56.011Z,1.09
2023-02-02T04:24:28.457Z,1.11
2023-02-02T04:27:00.912Z,1.13
2023-02-02T04:29:33.351Z,1.14
2023-02-02T04:32:05.937Z,1.13
2023-02-02T04:34:38.205Z,1.20
2023-02-02T04:37:10.664Z,1.22
2023-02-02T04:39:42.847Z,1.27
2023-02-02T04:42:15.170Z,1.31
2023-02-02T04:44:47.410Z,1.34
2023-02-02T04:47:19.777Z,1.28
2023-02-02T04:49:52.047Z,1.32
2023-02-02T04:52:24.215Z,1.29
2023-02-02T04:54:56.574Z,1.28
2023-02-02T04:57:28.891Z,1.26
2023-02-02T05:00:01.171Z,1.21
2023-02-02T05:02:36.480Z,1.18
2023-02-02T05:05:12.662Z,1.12
2023-02-02T05:07:45.054Z,1.13
2023-02-02T05:10:17.789Z,1.12
2023-02-02T05:12:50.015Z,1.11
2023-02-02T05:15:23.154Z,1.07
2023-02-02T05:17:55.666Z,1.04
2023-02-02T05:20:27.996Z,1.01
2023-02-02T05:23:00.418Z,1.05
2023-02-02T05:25:32.759Z,1.04
2023-02-02T05:28:05.294Z,1.04
2023-02-02T05:30:39.980Z,1.03
2023-02-02T05:33:12.596Z,1.01
2023-02-02T05:35:46.020Z,1.01
2023-02-02T05:38:18.925Z,1.02
2023-02-02T05:40:52.926Z,1.03
2023-02-02T05:43:27.904Z,1.05
2023-02-02T05:46:00.835Z,1.07
2023-02-02T05:48:33.295Z,1.11
2023-02-02T05:51:11.981Z,1.12
2023-02-02T05:53:45.262Z,1.14
2023-02-02T05:56:17.526Z,1.17
2023-02-02T05:58:49.974Z,1.19
2023-02-02T06:01:22.803Z,1.21
2023-02-02T06:03:55.308Z,1.23
2023-02-02T06:06:28.001Z,1.25
2023-02-02T06:09:00.281Z,1.26
2023-02-02T06:11:32.974Z,1.27
2023-02-02T06:14:05.403Z,1.31
2023-02-02T06:16:37.838Z,1.34
2023-02-02T06:19:10.311Z,1.38
2023-02-02T06:21:42.603Z,1.42
2023-02-02T06:24:14.920Z,1.44
2023-02-02T06:26:47.259Z,1.48
2023-02-02T06:29:19.512Z,1.49
2023-02-02T06:31:51.914Z,1.51
2023-02-02T06:34:24.236Z,1.53
2023-02-02T06:36:56.619Z,1.57
2023-02-02T06:39:29.015Z,1.59
2023-02-02T06:42:11.887Z,1.61
2023-02-02T06:44:52.670Z,1.66
2023-02-02T06:47:26.819Z,1.70
2023-02-02T06:49:59.486Z,1.76
2023-02-02T06:52:31.794Z,1.80
2023-02-02T06:55:04.169Z,1.85
2023-02-02T06:57:36.459Z,1.91
2023-02-02T07:00:11.298Z,1.94
2023-02-02T07:02:48.079Z,1.96
2023-02-02T07:05:21.717Z,1.98
2023-02-02T07:07:54.485Z,1.99
2023-02-02T07:11:14.513Z,1.97
2023-02-02T07:13:19.102Z,2.01
2023-02-02T07:15:51.460Z,2.06
2023-02-02T07:18:23.725Z,2.09
2023-02-02T07:20:55.929Z,2.09
2023-02-02T07:23:28.180Z,2.10
2023-02-02T07:26:08.307Z,2.09
2023-02-02T07:28:41.388Z,2.03
2023-02-02T07:31:20.381Z,2.01
2023-02-02T07:33:53.277Z,2.00
2023-02-02T07:36:26.704Z,2.00
2023-02-02T07:38:59.784Z,2.04
2023-02-02T07:41:32.569Z,2.10
2023-02-02T07:44:05.505Z,2.14
2023-02-02T07:46:38.084Z,2.20
2023-02-02T07:49:12.477Z,2.24
2023-02-02T07:51:47.802Z,2.28
2023-02-02T07:54:20.358Z,2.41
2023-02-02T07:56:52.725Z,2.54
2023-02-02T07:59:25.317Z,2.63
2023-02-02T08:01:57.605Z,2.67
2023-02-02T08:04:30.750Z,2.89
2023-02-02T08:07:03.067Z,3.18
2023-02-02T08:09:35.262Z,3.41
2023-02-02T08:12:07.753Z,3.61
2023-02-02T08:14:40.121Z,3.91
2023-02-02T08:17:12.387Z,4.21
2023-02-02T08:19:44.789Z,4.48
2023-02-02T08:22:18.847Z,4.65
2023-02-02T08:24:52.757Z,4.85
2023-02-02T08:27:24.980Z,4.98
2023-02-02T08:29:57.349Z,5.08
2023-02-02T08:32:32.125Z,5.18
2023-02-02T08:35:04.500Z,5.42
2023-02-02T08:37:36.910Z,5.50
2023-02-02T08:40:11.870Z,5.48
2023-02-02T08:42:46.327Z,5.37
2023-02-02T08:46:12.894Z,5.23
2023-02-02T08:48:12.980Z,5.01
2023-02-02T08:50:45.701Z,4.90
2023-02-02T08:53:18.117Z,4.79
2023-02-02T08:55:50.580Z,4.74
2023-02-02T08:58:23.033Z,4.70
2023-02-02T09:00:55.775Z,4.54
2023-02-02T09:03:28.107Z,4.40
2023-02-02T09:06:04.836Z,4.25
2023-02-02T09:08:37.247Z,4.14
2023-02-02T09:11:14.589Z,4.04
2023-02-02T09:13:48.892Z,3.91
2023-02-02T09:16:22.302Z,3.78
2023-02-02T09:18:55.155Z,3.68
2023-02-02T09:21:27.833Z,3.63
2023-02-02T09:24:00.217Z,3.63
2023-02-02T09:26:32.851Z,3.65
2023-02-02T09:29:07.047Z,3.67
2023-02-02T09:31:40.866Z,3.68
2023-02-02T09:34:15.286Z,3.72
2023-02-02T09:36:47.877Z,3.72
2023-02-02T09:39:20.652Z,3.72
2023-02-02T09:42:33.552Z,3.77
2023-02-02T09:45:16.931Z,3.94
2023-02-02T09:48:05.200Z,4.01
2023-02-02T09:50:44.635Z,4.05
2023-02-02T09:53:54.610Z,4.28
2023-02-02T09:56:34.339Z,4.63
2023-02-02T09:59:19.802Z,4.80
2023-02-02T10:01:57.244Z,4.96
2023-02-02T10:04:36.538Z,4.98
2023-02-02T10:07:14.504Z,5.01
2023-02-02T10:09:53.056Z,4.94
2023-02-02T10:12:35.978Z,4.89
2023-02-02T10:15:18.816Z,4.86
2023-02-02T10:17:56.183Z,4.84
2023-02-02T10:20:38.255Z,4.77
2023-02-02T10:23:20.507Z,4.75
2023-02-02T10:26:01.806Z,4.76
2023-02-02T10:28:44.982Z,4.73
2023-02-02T10:31:34.421Z,4.66
2023-02-02T10:34:15.164Z,4.71
2023-02-02T10:37:06.146Z,4.71
2023-02-02T10:39:53.183Z,4.69
2023-02-02T10:42:35.929Z,4.73
2023-02-02T10:45:15.532Z,4.71
2023-02-02T10:47:48.102Z,4.64
2023-02-02T10:50:21.938Z,4.59
2023-02-02T10:52:57.766Z,4.59
2023-02-02T10:55:38.594Z,4.60
2023-02-02T10:58:20.485Z,4.64
2023-02-02T11:00:55.266Z,4.67
2023-02-02T11:03:30.289Z,4.68
2023-02-02T11:06:22.013Z,4.68
2023-02-02T11:08:59.667Z,4.67
2023-02-02T11:11:35.589Z,4.64
2023-02-02T11:14:16.751Z,4.61
2023-02-02T11:17:00.681Z,4.61
2023-02-02T11:19:35.449Z,4.66
2023-02-02T11:22:07.959Z,4.72
2023-02-02T11:24:47.238Z,4.78
2023-02-02T11:27:22.869Z,4.79
2023-02-02T11:29:56.572Z,4.80
2023-02-02T11:32:33.095Z,4.79
2023-02-02T11:35:23.833Z,4.82
2023-02-02T11:37:58.981Z,4.81
2023-02-02T11:40:35.716Z,4.85
2023-02-02T11:43:19.289Z,4.87
2023-02-02T11:46:00.886Z,4.88
2023-02-02T11:48:38.147Z,4.88
2023-02-02T11:51:21.056Z,4.89
2023-02-02T11:54:02.784Z,4.87
2023-02-02T11:56:36.578Z,4.85
2023-02-02T11:59:26.915Z,4.85
2023-02-02T12:05:13.832Z,4.98
2023-02-02T12:07:47.171Z,4.98
2023-02-02T12:10:25.770Z,4.98
2023-02-02T12:13:06.819Z,5.00
2023-02-02T12:15:52.490Z,5.03
2023-02-02T12:18:41.668Z,5.05
2023-02-02T12:21:22.121Z,5.06
2023-02-02T12:24:20.158Z,5.05
2023-02-02T12:27:01.840Z,5.04
2023-02-02T12:29:45.871Z,5.04
2023-02-02T12:32:49.326Z,5.05
2023-02-02T12:35:39.420Z,5.08
2023-02-02T12:38:25.636Z,5.10
2023-02-02T12:41:15.258Z,5.13
2023-02-02T12:43:50.204Z,5.14
2023-02-02T12:46:43.653Z,5.13
2023-02-02T12:49:34.601Z,5.13
2023-02-02T12:52:22.506Z,5.11
2023-02-02T12:55:11.973Z,5.10
2023-02-02T12:57:54.483Z,5.12
2023-02-02T13:00:51.884Z,5.10
2023-02-02T13:03:50.363Z,5.10
2023-02-02T13:06:53.022Z,5.10
2023-02-02T13:09:31.982Z,5.07
2023-02-02T13:12:09.696Z,5.03
2023-02-02T13:14:46.142Z,5.02
2023-02-02T13:17:26.485Z,5.02
2023-02-02T13:20:04.645Z,4.99
2023-02-02T13:22:42.380Z,4.99
2023-02-02T13:25:26.919Z,4.99
2023-02-02T13:28:01.482Z,4.97
2023-02-02T13:30:38.069Z,4.99
2023-02-02T13:33:17.318Z,5.03
2023-02-02T13:35:56.376Z,5.07
2023-02-02T13:38:31.128Z,5.07
2023-02-02T13:41:08.769Z,5.08
2023-02-02T13:43:50.318Z,5.11
2023-02-02T13:46:32.425Z,5.12
2023-02-02T13:49:13.444Z,5.14
2023-02-02T13:52:00.870Z,5.14
2023-02-02T13:55:02.990Z,5.14
2023-02-02T13:58:13.827Z,5.11
2023-02-02T14:00:49.613Z,5.10
2023-02-02T14:03:38.624Z,5.11
2023-02-02T14:06:15.371Z,5.13
2023-02-02T14:08:52.875Z,5.14
2023-02-02T14:11:30.397Z,5.13
2023-02-02T14:14:35.363Z,5.14
2023-02-02T14:17:29.522Z,5.15
2023-02-02T14:20:02.587Z,5.16
2023-02-02T14:22:51.519Z,5.16
2023-02-02T14:25:55.528Z,5.13
2023-02-02T14:28:45.637Z,5.08
2023-02-02T14:31:55.277Z,5.04
2023-02-02T14:34:44.387Z,4.98
2023-02-02T14:37:47.388Z,4.98
2023-02-02T14:40:35.415Z,4.97
2023-02-02T14:43:43.490Z,4.95
2023-02-02T14:46:40.784Z,4.93
2023-02-02T14:49:19.319Z,4.88
2023-02-02T14:52:00.369Z,4.82
2023-02-02T14:54:40.070Z,4.79
2023-02-02T14:57:29.384Z,4.75
2023-02-02T15:00:01.900Z,4.70
2023-02-02T15:02:38.954Z,4.68
2023-02-02T15:05:46.299Z,4.69
2023-02-02T15:08:25.466Z,4.69
2023-02-02T15:11:27.613Z,4.69
2023-02-02T15:14:17.535Z,4.67
2023-02-02T15:16:50.716Z,4.64
2023-02-02T15:19:33.383Z,4.61
2023-02-02T15:22:22.976Z,4.58
2023-02-02T15:24:57.957Z,4.55
2023-02-02T15:27:31.345Z,4.53
2023-02-02T15:30:09.753Z,4.51
2023-02-02T15:32:42.303Z,4.48
2023-02-02T15:35:21.700Z,4.43
2023-02-02T15:37:59.187Z,4.39
2023-02-02T15:40:33.283Z,4.36
2023-02-02T15:43:09.385Z,4.33
2023-02-02T15:45:45.972Z,4.28
2023-02-02T15:48:30.081Z,4.24
2023-02-02T15:51:06.531Z,4.20
2023-02-02T15:53:51.910Z,4.13
2023-02-02T15:56:32.015Z,4.08
2023-02-02T15:59:04.309Z,4.04
2023-02-02T16:01:48.802Z,4.03
2023-02-02T16:04:29.040Z,4.02
2023-02-02T16:07:02.473Z,4.01
2023-02-02T16:09:37.600Z,4.00
2023-02-02T16:12:18.692Z,4.01
2023-02-02T16:14:53.281Z,4.02
2023-02-02T16:17:31.203Z,4.00
2023-02-02T16:20:08.906Z,3.99
2023-02-02T16:22:45.881Z,3.99
2023-02-02T16:25:24.425Z,3.98
2023-02-02T16:27:57.092Z,3.99
2023-02-02T16:30:35.784Z,3.99
2023-02-02T16:33:37.726Z,3.99
2023-02-02T16:36:25.402Z,3.99
2023-02-02T16:39:01.265Z,3.98
2023-02-02T16:41:35.354Z,3.96
2023-02-02T16:44:31.912Z,3.94
2023-02-02T16:47:06.011Z,3.90
2023-02-02T16:49:39.542Z,3.88
2023-02-02T16:52:15.775Z,3.83
2023-02-02T16:54:55.573Z,3.80
2023-02-02T16:57:34.074Z,3.77
2023-02-02T17:00:09.408Z,3.73
2023-02-02T17:02:49.688Z,3.70
2023-02-02T17:05:25.754Z,3.67
2023-02-02T17:08:03.913Z,3.65
2023-02-02T17:10:37.839Z,3.63
2023-02-02T17:16:12.030Z,3.65
2023-02-02T17:18:44.779Z,3.62
2023-02-02T17:21:19.351Z,3.61
2023-02-02T17:23:54.277Z,3.60
2023-02-02T17:26:26.878Z,3.60
2023-02-02T17:29:00.754Z,3.58
2023-02-02T17:31:33.561Z,3.57
2023-02-02T17:34:10.698Z,3.56
2023-02-02T17:36:43.131Z,3.54
2023-02-02T17:39:15.408Z,3.52
2023-02-02T17:41:49.271Z,3.50
2023-02-02T17:44:21.742Z,3.48
2023-02-02T17:46:54.098Z,3.45
2023-02-02T17:49:26.661Z,3.41
2023-02-02T17:51:59.192Z,3.38
2023-02-02T17:54:31.734Z,3.35
2023-02-02T17:57:04.084Z,3.33
2023-02-02T17:59:36.456Z,3.29
2023-02-02T18:02:11.565Z,3.27
2023-02-02T18:04:45.624Z,3.23
2023-02-02T18:07:18.188Z,3.22
2023-02-02T18:09:50.567Z,3.22
2023-02-02T18:12:23.174Z,3.20
2023-02-02T18:14:55.669Z,3.18
2023-02-02T18:17:28.332Z,3.14
2023-02-02T18:20:00.740Z,3.08
2023-02-02T18:22:33.033Z,3.05
2023-02-02T18:25:05.344Z,3.03
2023-02-02T18:27:37.728Z,2.98
2023-02-02T18:30:12.619Z,2.95
2023-02-02T18:32:44.975Z,2.94
2023-02-02T18:35:17.600Z,2.92
2023-02-02T18:37:50.422Z,2.92
2023-02-02T18:40:22.803Z,2.90
2023-02-02T18:42:55.239Z,2.87
2023-02-02T18:45:27.854Z,2.84
2023-02-02T18:48:00.406Z,2.83
2023-02-02T18:50:32.775Z,2.80
2023-02-02T18:53:05.078Z,2.80
2023-02-02T18:55:42.964Z,2.79
2023-02-02T18:58:15.825Z,2.78
2023-02-02T19:00:49.414Z,2.77
2023-02-02T19:03:21.659Z,2.75
2023-02-02T19:06:11.310Z,2.74
2023-02-02T19:08:43.964Z,2.72
2023-02-02T19:11:19.499Z,2.69
2023-02-02T19:13:52.304Z,2.68
2023-02-02T19:16:28.107Z,2.66
2023-02-02T19:19:09.134Z,2.65
2023-02-02T19:21:42.433Z,2.61
2023-02-02T19:24:16.459Z,2.59
2023-02-02T19:26:51.221Z,2.56
2023-02-02T19:29:25.340Z,2.55
2023-02-02T19:32:03.554Z,2.47
2023-02-02T19:34:36.515Z,2.52
2023-02-02T19:37:26.892Z,2.54
2023-02-02T19:40:15.317Z,2.54
2023-02-02T19:42:49.827Z,2.52
2023-02-02T19:45:28.237Z,2.50
2023-02-02T19:48:02.551Z,2.50
2023-02-02T19:50:41.604Z,2.49
2023-02-02T19:53:19.880Z,2.48
2023-02-02T19:55:52.901Z,2.47
2023-02-02T19:58:26.572Z,2.47
2023-02-02T20:01:00.572Z,2.47
2023-02-02T20:03:45.551Z,2.48
2023-02-02T20:06:24.014Z,2.47
2023-02-02T20:08:56.529Z,2.46
2023-02-02T20:11:37.221Z,2.44
2023-02-02T20:14:29.327Z,2.45
2023-02-02T20:17:06.150Z,2.47
2023-02-02T20:19:43.197Z,2.45
2023-02-02T20:22:25.414Z,2.44
2023-02-02T20:25:00.419Z,2.44
2023-02-02T20:27:35.554Z,2.44
2023-02-02T20:30:20.736Z,2.42
2023-02-02T20:32:56.527Z,2.40
2023-02-02T20:35:37.262Z,2.38
2023-02-02T20:38:22.304Z,2.37
2023-02-02T20:40:55.227Z,2.36
2023-02-02T20:43:27.646Z,2.34
2023-02-02T20:46:00.006Z,2.30
2023-02-02T20:48:32.424Z,2.27
2023-02-02T20:51:05.503Z,2.23
2023-02-02T20:53:39.547Z,2.21
2023-02-02T20:56:11.883Z,2.19
2023-02-02T20:58:44.545Z,2.17
2023-02-02T21:01:16.765Z,2.16
2023-02-02T21:03:49.037Z,2.10
2023-02-02T21:06:21.363Z,2.06
2023-02-02T21:08:53.725Z,2.03
2023-02-02T21:11:26.570Z,1.98
2023-02-02T21:13:59.676Z,1.94
2023-02-02T21:16:32.268Z,1.92
2023-02-02T21:19:04.556Z,1.91
2023-02-02T21:21:37.227Z,1.89
2023-02-02T21:24:09.934Z,1.88
2023-02-02T21:26:42.319Z,1.87
2023-02-02T21:29:14.698Z,1.85
2023-02-02T21:31:47.123Z,1.81
2023-02-02T21:34:20.949Z,1.77
2023-02-02T21:36:57.243Z,1.74
2023-02-02T21:39:32.645Z,1.74
2023-02-02T21:42:15.401Z,1.72
2023-02-02T21:44:52.593Z,1.69
2023-02-02T21:47:30.394Z,1.67
2023-02-02T21:50:15.952Z,1.65
2023-02-02T21:52:48.743Z,1.60
2023-02-02T21:55:38.178Z,1.59
2023-02-02T21:58:20.800Z,1.55
2023-02-02T22:00:54.021Z,1.53
2023-02-02T22:03:34.182Z,1.52
2023-02-02T22:06:23.115Z,1.50
2023-02-02T22:09:01.513Z,1.53
2023-02-02T22:11:44.779Z,1.53
2023-02-02T22:14:23.501Z,1.54
2023-02-02T22:16:57.997Z,1.55
2023-02-02T22:19:39.216Z,1.55
2023-02-02T22:22:18.100Z,1.55
2023-02-02T22:24:57.231Z,1.55
2023-02-02T22:27:39.978Z,1.55
2023-02-02T22:30:22.372Z,1.55
2023-02-02T22:32:56.229Z,1.52
2023-02-02T22:35:28.641Z,1.51
2023-02-02T22:38:00.936Z,1.51
2023-02-02T22:40:33.365Z,1.53
2023-02-02T22:43:08.227Z,1.56
2023-02-02T22:45:40.892Z,1.56
2023-02-02T22:48:13.691Z,1.56
2023-02-02T22:50:46.047Z,1.55
2023-02-02T22:53:19.840Z,1.57
2023-02-02T22:55:56.638Z,1.58
2023-02-02T22:58:29.093Z,1.60
2023-02-02T23:01:01.460Z,1.61
2023-02-02T23:03:33.844Z,1.58
2023-02-02T23:06:06.445Z,1.57
2023-02-02T23:08:38.726Z,1.55
2023-02-02T23:11:11.094Z,1.58
2023-02-02T23:13:43.405Z,1.60
2023-02-02T23:16:15.924Z,1.63
2023-02-02T23:18:48.282Z,1.62
2023-02-02T23:21:20.870Z,1.61
2023-02-02T23:23:53.117Z,1.60
2023-02-02T23:26:25.504Z,1.59
2023-02-02T23:28:57.692Z,1.56
2023-02-02T23:31:30.104Z,1.56
2023-02-02T23:34:02.578Z,1.55
2023-02-02T23:36:34.948Z,1.54
2023-02-02T23:39:07.284Z,1.55
2023-02-02T23:41:39.646Z,1.56
2023-02-02T23:44:12.041Z,1.56
2023-02-02T23:46:44.981Z,1.51
2023-02-02T23:49:17.645Z,1.49
2023-02-02T23:51:50.365Z,1.51
2023-02-02T23:54:22.738Z,1.53
2023-02-02T23:56:55.397Z,1.55
2023-02-02T23:59:27.714Z,1.55
